Main page
METAR-TAF:

METAR-TAF

Airports :

Minna Airport

Minna, Nigeria

latitude: 9-37N, longitude: 6-32E, elevation: 260 m

Current weather observation

The report was made 1 hour and 32 minutes ago, at 16:00 UTC
Wind 5 kt from the West/Northwest
Temperature 25°C
Humidity 83%
Pressure 1014 hPa
Visibility 10 km or more
Few clouds at a height of 1000 ft

METAR: DNMN 241600Z 30005KT 9999 FEW010 25/22 Q1014

Time: 18:32 (17:32 UTC)


TAF: missing

Weather observations and forecasts of more than 4000 airports (METAR and TAF reports).

The available stations are represented by yellow and red dots on the map.

Hover mouse over dot to see the name of the station.

Then click to see weather observations and forecasts.

To change the map : click on the green buttons with a black cross to zoom in, on the green button with a dash to zoom out, or on the green arrows for adjacent maps.


METAR-TAF: